createdAt,value
2019-05-09T00:00:23.296Z,47.17
2019-05-09T00:02:58.053Z,64.33
2019-05-09T00:05:29.889Z,50.67
2019-05-09T00:08:03.463Z,55.97
2019-05-09T00:10:41.331Z,63.60
2019-05-09T00:13:08.978Z,66.27
2019-05-09T00:15:43.730Z,67.17
2019-05-09T00:18:15.812Z,59.97
2019-05-09T00:20:59.526Z,84.30
2019-05-09T00:23:33.198Z,60.70
2019-05-09T00:26:04.995Z,59.70
2019-05-09T00:28:38.712Z,72.87
2019-05-09T00:31:17.327Z,85.20
2019-05-09T00:33:54.873Z,85.97
2019-05-09T00:36:26.661Z,71.47
2019-05-09T00:38:58.696Z,60.73
2019-05-09T00:41:30.469Z,63.33
2019-05-09T00:44:08.727Z,73.33
2019-05-09T00:46:58.978Z,64.97
2019-05-09T00:49:31.023Z,66.20
2019-05-09T00:52:03.520Z,47.30
2019-05-09T00:54:36.077Z,14.03
2019-05-09T00:57:07.842Z,20.90
2019-05-09T00:59:39.798Z,39.43
2019-05-09T01:02:13.162Z,50.53
2019-05-09T01:04:45.355Z,55.37
2019-05-09T01:07:17.185Z,9.43
2019-05-09T01:09:48.997Z,9.00
2019-05-09T01:12:20.790Z,13.13
2019-05-09T01:14:53.910Z,9.40
2019-05-09T01:17:26.237Z,14.00
2019-05-09T01:19:58.954Z,14.27
2019-05-09T01:22:32.987Z,25.80
2019-05-09T01:25:04.573Z,8.40
2019-05-09T01:27:36.438Z,10.33
2019-05-09T01:30:08.771Z,7.43
2019-05-09T01:32:54.031Z,6.87
2019-05-09T01:35:26.139Z,6.73
2019-05-09T01:37:57.859Z,6.93
2019-05-09T01:40:29.955Z,7.03
2019-05-09T01:43:01.704Z,7.67
2019-05-09T01:45:35.011Z,6.80
2019-05-09T01:48:07.016Z,7.53
2019-05-09T01:50:38.842Z,6.43
2019-05-09T01:53:13.383Z,6.50
2019-05-09T01:56:03.443Z,7.43
2019-05-09T01:58:35.208Z,6.83
2019-05-09T02:01:09.142Z,6.80
2019-05-09T02:03:41.178Z,6.00
2019-05-09T02:06:14.144Z,6.37
2019-05-09T02:08:45.873Z,6.30
2019-05-09T02:11:17.651Z,6.53
2019-05-09T02:13:49.374Z,6.43
2019-05-09T02:16:35.951Z,6.13
2019-05-09T02:19:29.579Z,6.83
2019-05-09T02:22:03.577Z,6.10
2019-05-09T02:24:35.193Z,6.37
2019-05-09T02:27:07.154Z,6.50
2019-05-09T02:29:38.947Z,8.33
2019-05-09T02:32:10.751Z,6.83
2019-05-09T02:34:44.248Z,6.77
2019-05-09T02:37:18.717Z,6.67
2019-05-09T02:39:50.721Z,7.20
2019-05-09T02:42:22.537Z,6.77
2019-05-09T02:44:54.294Z,6.27
2019-05-09T02:47:28.972Z,6.73
2019-05-09T02:50:00.087Z,6.47
2019-05-09T02:52:32.120Z,7.07
2019-05-09T02:55:03.865Z,6.20
2019-05-09T02:57:37.520Z,6.43
2019-05-09T03:00:31.930Z,6.43
2019-05-09T03:03:19.801Z,5.50
2019-05-09T03:05:52.042Z,6.73
2019-05-09T03:08:24.033Z,6.10
2019-05-09T03:10:58.842Z,6.20
2019-05-09T03:13:29.921Z,5.93
2019-05-09T03:16:08.930Z,6.07
2019-05-09T03:18:41.009Z,6.30
2019-05-09T03:21:23.360Z,5.57
2019-05-09T03:23:55.483Z,6.40
2019-05-09T03:26:31.288Z,6.40
2019-05-09T03:29:19.385Z,6.50
2019-05-09T03:31:51.938Z,6.03
2019-05-09T03:34:23.819Z,6.03
2019-05-09T03:36:57.961Z,5.60
2019-05-09T03:39:29.179Z,6.63
2019-05-09T03:42:00.882Z,6.63
2019-05-09T03:44:32.815Z,5.40
2019-05-09T03:47:23.432Z,5.87
2019-05-09T03:50:13.792Z,6.30
2019-05-09T03:52:47.792Z,5.97
2019-05-09T03:55:25.392Z,6.43
2019-05-09T03:58:07.471Z,6.47
2019-05-09T04:00:39.487Z,7.33
2019-05-09T04:03:11.241Z,6.67
2019-05-09T04:05:55.562Z,6.93
2019-05-09T04:08:18.224Z,6.23
2019-05-09T04:10:52.752Z,6.57
2019-05-09T04:13:29.156Z,5.43
2019-05-09T04:16:01.080Z,6.90
2019-05-09T04:18:32.855Z,7.43
2019-05-09T04:21:04.878Z,6.83
2019-05-09T04:23:37.895Z,5.77
2019-05-09T04:26:27.692Z,6.23
2019-05-09T04:28:59.625Z,5.73
2019-05-09T04:31:31.479Z,6.53
2019-05-09T04:34:03.277Z,6.13
2019-05-09T04:36:40.972Z,5.47
2019-05-09T04:39:20.835Z,6.30
2019-05-09T04:41:48.873Z,7.23
2019-05-09T04:44:38.399Z,6.90
2019-05-09T04:47:10.234Z,7.00
2019-05-09T04:49:45.206Z,7.13
2019-05-09T04:52:17.813Z,5.97
2019-05-09T04:54:49.308Z,6.70
2019-05-09T04:57:21.343Z,6.47
2019-05-09T04:59:53.132Z,6.90
2019-05-09T05:02:49.854Z,7.90
2019-05-09T05:05:21.744Z,6.67
2019-05-09T05:07:57.352Z,6.53
2019-05-09T05:10:29.503Z,7.27
2019-05-09T05:13:01.698Z,8.00
2019-05-09T05:15:33.493Z,7.17
2019-05-09T05:18:05.539Z,8.17
2019-05-09T05:20:38.006Z,8.83
2019-05-09T05:23:18.151Z,8.33
2019-05-09T05:25:52.825Z,8.60
2019-05-09T05:28:24.676Z,8.10
2019-05-09T05:30:58.181Z,8.27
2019-05-09T05:33:45.678Z,7.53
2019-05-09T05:36:18.147Z,7.07
2019-05-09T05:38:50.219Z,7.83
2019-05-09T05:41:22.252Z,7.77
2019-05-09T05:43:54.136Z,7.47
2019-05-09T05:46:37.794Z,8.37
2019-05-09T05:49:08.795Z,8.07
2019-05-09T05:51:49.797Z,7.03
2019-05-09T05:54:22.494Z,6.63
2019-05-09T05:56:54.315Z,7.63
2019-05-09T05:59:28.648Z,8.48
2019-05-09T06:01:59.760Z,12.70
2019-05-09T06:04:31.786Z,7.00
2019-05-09T06:07:03.561Z,6.73
2019-05-09T06:09:37.903Z,7.30
2019-05-09T06:12:09.575Z,7.27
2019-05-09T06:14:41.672Z,6.60
2019-05-09T06:17:13.465Z,6.53
2019-05-09T06:19:48.664Z,6.13
2019-05-09T06:22:20.439Z,6.13
2019-05-09T06:24:52.461Z,6.05
2019-05-09T06:27:24.493Z,7.17
2019-05-09T06:29:58.234Z,6.17
2019-05-09T06:32:30.302Z,7.10
2019-05-09T06:35:02.388Z,6.20
2019-05-09T06:37:35.141Z,7.40
2019-05-09T06:40:08.105Z,6.92
2019-05-09T06:42:40.505Z,7.05
2019-05-09T06:45:42.416Z,6.67
2019-05-09T06:48:14.973Z,18.62
2019-05-09T06:50:48.340Z,8.95
2019-05-09T06:53:20.315Z,7.22
2019-05-09T06:55:52.412Z,7.22
2019-05-09T06:58:34.283Z,7.15
2019-05-09T07:01:23.366Z,6.55
2019-05-09T07:03:59.963Z,6.55
2019-05-09T07:06:38.961Z,6.30
2019-05-09T07:09:17.887Z,8.18
2019-05-09T07:11:49.817Z,7.30
2019-05-09T07:14:37.962Z,6.72
2019-05-09T07:17:08.253Z,7.33
2019-05-09T07:19:43.818Z,18.17
2019-05-09T07:22:39.533Z,7.42
2019-05-09T07:25:18.638Z,10.45
2019-05-09T07:27:50.814Z,6.70
2019-05-09T07:30:52.600Z,6.58
2019-05-09T07:33:34.370Z,14.45
2019-05-09T07:36:08.475Z,6.97
2019-05-09T07:38:39.923Z,7.08
2019-05-09T07:41:11.957Z,6.22
2019-05-09T07:43:43.888Z,6.50
2019-05-09T07:46:28.982Z,6.12
2019-05-09T07:49:03.885Z,7.45
2019-05-09T07:51:37.312Z,11.30
2019-05-09T07:54:21.337Z,11.73
2019-05-09T07:56:43.302Z,24.80
2019-05-09T07:59:17.964Z,48.33
2019-05-09T08:01:49.204Z,70.47
2019-05-09T08:04:21.800Z,67.45
2019-05-09T08:06:53.809Z,37.17
2019-05-09T08:09:28.153Z,70.40
2019-05-09T08:11:59.733Z,47.83
2019-05-09T08:14:32.457Z,71.20
2019-05-09T08:17:04.272Z,49.93
2019-05-09T08:19:38.007Z,56.68
2019-05-09T08:22:11.286Z,21.80
2019-05-09T08:24:44.387Z,41.48
2019-05-09T08:27:17.517Z,66.15
2019-05-09T08:29:49.815Z,61.28
2019-05-09T08:32:21.915Z,55.33
2019-05-09T08:34:54.143Z,87.12
2019-05-09T08:37:28.333Z,68.05
2019-05-09T08:39:59.879Z,85.85
2019-05-09T08:42:32.103Z,86.15
2019-05-09T08:45:04.217Z,72.50
2019-05-09T08:47:38.050Z,77.40
2019-05-09T08:50:17.832Z,91.25
2019-05-09T08:52:49.716Z,90.80
2019-05-09T08:55:21.946Z,88.37
2019-05-09T08:57:53.820Z,91.30
2019-05-09T09:00:29.150Z,89.42
2019-05-09T09:03:01.103Z,93.92
2019-05-09T09:05:33.248Z,88.97
2019-05-09T09:08:08.338Z,86.82
2019-05-09T09:10:40.482Z,74.42
2019-05-09T09:13:12.637Z,80.67
2019-05-09T09:16:05.368Z,69.92
2019-05-09T09:18:19.926Z,71.07
2019-05-09T09:20:53.931Z,76.72
2019-05-09T09:23:42.377Z,74.10
2019-05-09T09:25:59.811Z,86.02
2019-05-09T09:28:31.912Z,92.65
2019-05-09T09:31:04.685Z,94.45
2019-05-09T09:33:37.657Z,87.45
2019-05-09T09:36:10.724Z,76.60
2019-05-09T09:38:42.806Z,77.60
2019-05-09T09:41:14.958Z,72.62
2019-05-09T09:43:47.676Z,71.37
2019-05-09T09:46:20.277Z,74.82
2019-05-09T09:48:52.118Z,86.63
2019-05-09T09:51:24.201Z,50.35
2019-05-09T09:53:58.338Z,50.75
2019-05-09T09:56:29.843Z,71.30
2019-05-09T09:59:12.517Z,66.25
2019-05-09T10:01:47.723Z,70.28
2019-05-09T10:04:23.826Z,71.60
2019-05-09T10:06:53.254Z,75.50
2019-05-09T10:09:25.437Z,65.60
2019-05-09T10:12:00.584Z,64.00
2019-05-09T10:14:34.688Z,17.95
2019-05-09T10:17:31.581Z,43.00
2019-05-09T10:20:29.136Z,63.40
2019-05-09T10:23:11.124Z,57.60
2019-05-09T10:25:35.107Z,69.25
2019-05-09T10:28:08.665Z,55.40
2019-05-09T10:30:40.571Z,35.38
2019-05-09T10:33:12.690Z,65.75
2019-05-09T10:35:44.546Z,72.27
2019-05-09T10:38:18.445Z,72.17
2019-05-09T10:40:53.203Z,90.28
2019-05-09T10:43:38.004Z,83.67
2019-05-09T10:46:33.637Z,86.42
2019-05-09T10:49:03.503Z,86.78
2019-05-09T10:51:35.422Z,85.10
2019-05-09T10:54:08.104Z,77.55
2019-05-09T10:56:40.239Z,87.60
2019-05-09T10:59:12.146Z,90.07
2019-05-09T11:01:43.942Z,83.92
2019-05-09T11:04:17.977Z,72.70
2019-05-09T11:06:49.626Z,64.47
2019-05-09T11:09:21.592Z,71.12
2019-05-09T11:11:53.556Z,73.60
2019-05-09T11:14:33.538Z,83.33
2019-05-09T11:17:07.871Z,85.30
2019-05-09T11:19:33.132Z,83.47
2019-05-09T11:22:07.815Z,76.25
2019-05-09T11:24:46.148Z,75.55
2019-05-09T11:27:12.490Z,73.45
2019-05-09T11:29:46.410Z,70.95
2019-05-09T11:32:18.082Z,81.37
2019-05-09T11:34:50.237Z,63.60
2019-05-09T11:37:22.314Z,83.65
2019-05-09T11:39:54.570Z,92.60
2019-05-09T11:42:28.536Z,90.47
2019-05-09T11:45:00.446Z,85.75
2019-05-09T11:47:41.516Z,81.25
2019-05-09T11:50:08.946Z,72.15
2019-05-09T11:52:41.346Z,90.00
2019-05-09T11:55:28.822Z,86.10
2019-05-09T11:57:48.540Z,91.82
2019-05-09T12:00:21.925Z,77.87
2019-05-09T12:02:53.775Z,75.67
2019-05-09T12:05:28.567Z,71.85
2019-05-09T12:07:59.549Z,71.37
2019-05-09T12:10:31.543Z,75.47
2019-05-09T12:13:03.440Z,71.50
2019-05-09T12:15:35.410Z,74.97
2019-05-09T12:18:10.891Z,72.70
2019-05-09T12:20:41.103Z,25.68
2019-05-09T12:23:12.967Z,70.15
2019-05-09T12:25:44.961Z,68.55
2019-05-09T12:28:18.955Z,71.35
2019-05-09T12:30:50.628Z,70.30
2019-05-09T12:33:22.419Z,73.57
2019-05-09T12:35:54.863Z,72.15
2019-05-09T12:38:27.730Z,72.15
2019-05-09T12:41:00.544Z,69.87
2019-05-09T12:43:32.837Z,44.25
2019-05-09T12:46:04.712Z,76.15
2019-05-09T12:48:36.510Z,74.17
2019-05-09T12:51:08.695Z,73.95
2019-05-09T12:53:40.528Z,71.65
2019-05-09T12:56:12.299Z,70.60
2019-05-09T12:58:44.114Z,68.20
2019-05-09T13:01:18.012Z,71.35
2019-05-09T13:03:49.654Z,78.15
2019-05-09T13:06:22.119Z,70.40
2019-05-09T13:08:53.917Z,65.15
2019-05-09T13:11:27.906Z,47.53
2019-05-09T13:13:59.436Z,24.30
2019-05-09T13:16:52.387Z,75.42
2019-05-09T13:19:21.178Z,72.20
2019-05-09T13:21:53.456Z,71.47
2019-05-09T13:24:25.272Z,68.10
2019-05-09T13:26:58.534Z,64.58
2019-05-09T13:29:30.398Z,69.20
2019-05-09T13:32:02.554Z,42.90
2019-05-09T13:34:34.321Z,58.33
2019-05-09T13:37:09.067Z,73.00
2019-05-09T13:39:41.173Z,68.17
2019-05-09T13:42:13.277Z,71.40
2019-05-09T13:44:47.428Z,74.07
2019-05-09T13:47:18.726Z,72.65
2019-05-09T13:49:50.551Z,80.55
2019-05-09T13:52:22.700Z,78.00
2019-05-09T13:54:54.485Z,37.42
2019-05-09T13:57:27.747Z,27.35
2019-05-09T13:59:59.996Z,65.85
2019-05-09T14:02:31.949Z,70.87
2019-05-09T14:05:03.778Z,17.92
2019-05-09T14:07:37.689Z,76.77
2019-05-09T14:10:10.385Z,74.65
2019-05-09T14:12:42.677Z,66.55
2019-05-09T14:15:14.489Z,82.72
2019-05-09T14:17:53.115Z,79.20
2019-05-09T14:20:19.859Z,73.30
2019-05-09T14:22:52.094Z,68.25
2019-05-09T14:25:25.233Z,66.82
2019-05-09T14:27:57.086Z,78.83
2019-05-09T14:30:28.881Z,72.45
2019-05-09T14:33:00.845Z,45.35
2019-05-09T14:35:32.639Z,57.90
2019-05-09T14:38:05.079Z,60.23
2019-05-09T14:40:37.259Z,57.43
2019-05-09T14:43:11.779Z,32.10
2019-05-09T14:45:43.608Z,42.73
2019-05-09T14:48:15.687Z,75.05
2019-05-09T14:50:49.415Z,39.95
2019-05-09T14:53:21.447Z,7.70
2019-05-09T14:55:53.232Z,14.83
2019-05-09T14:58:25.279Z,20.92
2019-05-09T15:01:00.668Z,55.65
2019-05-09T15:03:30.952Z,67.90
2019-05-09T15:06:02.768Z,80.60
2019-05-09T15:08:34.888Z,79.42
2019-05-09T15:11:09.767Z,80.95
2019-05-09T15:13:40.351Z,77.73
2019-05-09T15:16:12.179Z,72.08
2019-05-09T15:18:44.168Z,82.43
2019-05-09T15:21:16.645Z,77.72
2019-05-09T15:23:49.892Z,77.53
2019-05-09T15:26:21.837Z,80.87
2019-05-09T15:28:53.785Z,76.90
2019-05-09T15:31:28.296Z,82.60
2019-05-09T15:33:59.187Z,75.10
2019-05-09T15:36:30.985Z,81.83
2019-05-09T15:39:03.490Z,77.20
2019-05-09T15:41:35.366Z,79.42
2019-05-09T15:44:08.234Z,71.40
2019-05-09T15:46:45.874Z,70.20
2019-05-09T15:49:18.389Z,59.00
2019-05-09T15:51:50.274Z,50.88
2019-05-09T15:54:22.328Z,57.17
2019-05-09T15:56:54.182Z,55.40
2019-05-09T15:59:28.053Z,37.73
2019-05-09T16:01:59.791Z,53.98
2019-05-09T16:04:31.910Z,60.33
2019-05-09T16:07:03.863Z,56.05
2019-05-09T16:09:37.807Z,77.58
2019-05-09T16:12:09.404Z,85.75
2019-05-09T16:14:41.432Z,76.10
2019-05-09T16:17:13.271Z,72.82
2019-05-09T16:19:45.208Z,91.30
2019-05-09T16:22:18.946Z,76.57
2019-05-09T16:24:51.091Z,87.97
2019-05-09T16:27:22.943Z,96.37
2019-05-09T16:29:54.837Z,92.22
2019-05-09T16:32:26.738Z,97.23
2019-05-09T16:34:58.560Z,83.40
2019-05-09T16:37:49.587Z,87.77
2019-05-09T16:40:04.239Z,93.10
2019-05-09T16:42:37.983Z,90.90
2019-05-09T16:45:11.850Z,87.17
2019-05-09T16:47:43.663Z,78.90
2019-05-09T16:50:17.855Z,93.47
2019-05-09T16:52:49.955Z,97.67
2019-05-09T16:55:33.235Z,92.10
2019-05-09T16:58:05.042Z,84.30
2019-05-09T17:00:47.880Z,71.67
2019-05-09T17:03:21.205Z,51.80
2019-05-09T17:05:53.592Z,53.13
2019-05-09T17:08:28.039Z,57.90
2019-05-09T17:10:59.629Z,59.97
2019-05-09T17:13:31.884Z,47.33
2019-05-09T17:16:04.148Z,55.40
2019-05-09T17:18:38.180Z,47.90
2019-05-09T17:21:33.021Z,65.73
2019-05-09T17:24:08.182Z,62.47
2019-05-09T17:26:40.031Z,48.42
2019-05-09T17:29:11.981Z,55.75
2019-05-09T17:31:44.464Z,89.23
2019-05-09T17:34:17.943Z,84.53
2019-05-09T17:36:50.176Z,84.57
2019-05-09T17:39:22.016Z,91.83
2019-05-09T17:41:54.069Z,86.87
2019-05-09T17:44:28.120Z,65.57
2019-05-09T17:46:59.487Z,59.17
2019-05-09T17:49:31.331Z,66.53
2019-05-09T17:52:03.416Z,72.73
2019-05-09T17:54:35.272Z,69.90
2019-05-09T17:57:08.963Z,89.93
2019-05-09T17:59:40.858Z,69.07
2019-05-09T18:02:12.869Z,67.97
2019-05-09T18:04:44.753Z,73.87
2019-05-09T18:07:17.982Z,72.90
2019-05-09T18:09:51.271Z,71.53
2019-05-09T18:12:23.644Z,60.83
2019-05-09T18:14:55.466Z,71.50
2019-05-09T18:17:27.741Z,77.43
2019-05-09T18:19:59.630Z,61.63
2019-05-09T18:22:31.593Z,69.33
2019-05-09T18:25:03.453Z,71.77
2019-05-09T18:27:37.763Z,70.17
2019-05-09T18:30:10.683Z,79.10
2019-05-09T18:32:57.745Z,60.87
2019-05-09T18:35:29.714Z,52.37
2019-05-09T18:38:01.818Z,82.83
2019-05-09T18:40:34.824Z,73.73
2019-05-09T18:43:07.672Z,60.63
2019-05-09T18:45:42.886Z,80.80
2019-05-09T18:48:14.717Z,54.13
2019-05-09T18:50:49.855Z,60.73
2019-05-09T18:53:21.876Z,55.40
2019-05-09T18:55:53.829Z,53.23
2019-05-09T18:58:26.216Z,54.97
2019-05-09T19:00:58.722Z,70.53
2019-05-09T19:03:31.459Z,64.50
2019-05-09T19:06:03.593Z,62.67
2019-05-09T19:08:36.384Z,65.10
2019-05-09T19:11:08.428Z,62.33
2019-05-09T19:13:42.406Z,70.77
2019-05-09T19:16:31.215Z,79.30
2019-05-09T19:19:22.305Z,73.70
2019-05-09T19:22:04.689Z,67.90
2019-05-09T19:24:34.031Z,81.97
2019-05-09T19:27:05.944Z,86.23
2019-05-09T19:29:38.065Z,85.93
2019-05-09T19:32:10.126Z,80.53
2019-05-09T19:34:42.003Z,82.37
2019-05-09T19:37:13.973Z,85.53
2019-05-09T19:39:46.025Z,90.17
2019-05-09T19:42:19.130Z,82.50
2019-05-09T19:44:51.316Z,78.83
2019-05-09T19:47:23.348Z,78.93
2019-05-09T19:49:55.319Z,76.60
2019-05-09T19:52:37.931Z,78.87
2019-05-09T19:55:01.117Z,84.47
2019-05-09T19:57:34.314Z,67.90
2019-05-09T20:00:06.794Z,84.47
2019-05-09T20:02:41.193Z,89.53
2019-05-09T20:05:14.033Z,91.27
2019-05-09T20:07:45.933Z,87.57
2019-05-09T20:10:35.897Z,88.73
2019-05-09T20:13:18.942Z,81.83
2019-05-09T20:15:51.363Z,84.87
2019-05-09T20:18:23.214Z,81.60
2019-05-09T20:20:57.430Z,81.10
2019-05-09T20:23:28.983Z,82.23
2019-05-09T20:26:02.428Z,84.07
2019-05-09T20:28:34.733Z,84.43
2019-05-09T20:31:07.546Z,87.30
2019-05-09T20:33:39.481Z,95.37
2019-05-09T20:36:11.594Z,84.73
2019-05-09T20:38:43.976Z,82.63
2019-05-09T20:41:16.522Z,83.50
2019-05-09T20:43:48.764Z,89.10
2019-05-09T20:46:21.222Z,82.47
2019-05-09T20:48:53.476Z,85.77
2019-05-09T20:51:27.245Z,82.33
2019-05-09T20:53:59.425Z,81.70
2019-05-09T20:56:31.783Z,93.50
2019-05-09T20:59:06.454Z,90.53
2019-05-09T21:01:39.118Z,97.03
2019-05-09T21:04:11.207Z,96.93
2019-05-09T21:06:43.362Z,94.43
2019-05-09T21:09:18.504Z,93.63
2019-05-09T21:11:51.088Z,97.27
2019-05-09T21:14:24.772Z,98.87
2019-05-09T21:16:57.226Z,97.03
2019-05-09T21:19:29.281Z,96.90
2019-05-09T21:22:01.575Z,97.30
2019-05-09T21:24:33.867Z,88.70
2019-05-09T21:27:06.171Z,93.23
2019-05-09T21:29:38.321Z,92.80
2019-05-09T21:32:10.747Z,89.33
2019-05-09T21:34:42.625Z,83.23
2019-05-09T21:37:14.673Z,87.57
2019-05-09T21:39:46.642Z,87.07
2019-05-09T21:42:18.626Z,90.83
2019-05-09T21:44:50.470Z,88.60
2019-05-09T21:47:22.771Z,85.37
2019-05-09T21:49:54.641Z,93.70
2019-05-09T21:52:26.692Z,89.13
2019-05-09T21:54:58.715Z,90.67
2019-05-09T21:57:30.945Z,94.07
2019-05-09T22:00:02.994Z,93.37
2019-05-09T22:02:36.547Z,92.47
2019-05-09T22:05:09.074Z,85.97
2019-05-09T22:07:41.036Z,90.00
2019-05-09T22:10:13.381Z,87.10
2019-05-09T22:12:45.214Z,92.73
2019-05-09T22:15:17.135Z,92.90
2019-05-09T22:17:49.054Z,96.10
2019-05-09T22:20:21.561Z,95.03
2019-05-09T22:22:53.706Z,96.87
2019-05-09T22:25:25.740Z,96.20
2019-05-09T22:27:57.596Z,96.23
2019-05-09T22:30:29.586Z,93.87
2019-05-09T22:33:01.510Z,93.03
2019-05-09T22:35:34.613Z,98.30
2019-05-09T22:38:06.688Z,94.53
2019-05-09T22:40:38.505Z,94.50
2019-05-09T22:43:10.621Z,88.43
2019-05-09T22:45:42.557Z,87.13
2019-05-09T22:48:14.704Z,94.50
2019-05-09T22:50:46.501Z,97.53
2019-05-09T22:53:18.429Z,93.13
2019-05-09T22:55:50.245Z,92.40
2019-05-09T22:58:22.280Z,87.73
2019-05-09T23:00:54.044Z,86.83
2019-05-09T23:03:26.088Z,87.03
2019-05-09T23:05:58.177Z,85.20
2019-05-09T23:08:30.153Z,69.63
2019-05-09T23:11:02.031Z,76.17
2019-05-09T23:13:52.537Z,88.87
2019-05-09T23:16:26.434Z,84.83
2019-05-09T23:18:58.458Z,76.33
2019-05-09T23:21:30.681Z,69.13
2019-05-09T23:24:05.721Z,66.77
2019-05-09T23:26:37.632Z,89.47
2019-05-09T23:29:09.530Z,82.73
2019-05-09T23:31:52.530Z,91.83
2019-05-09T23:34:24.930Z,86.93
2019-05-09T23:36:56.715Z,74.00
2019-05-09T23:39:31.579Z,72.83
2019-05-09T23:42:03.350Z,76.80
2019-05-09T23:44:35.437Z,68.93
2019-05-09T23:47:07.389Z,67.20
2019-05-09T23:49:39.561Z,67.03
2019-05-09T23:52:11.629Z,62.57
2019-05-09T23:55:01.230Z,61.87
2019-05-09T23:57:50.786Z,54.63
